sensor_id;sensor_type;location;lat;lon;timestamp;P1;durP1;ratioP1;P2;durP2;ratioP2
8435;SDS011;4255;48.730;9.156;2023-01-05T00:00:55;1.30;;;1.20;;
8435;SDS011;4255;48.730;9.156;2023-01-05T00:03:26;1.10;;;1.10;;
8435;SDS011;4255;48.730;9.156;2023-01-05T00:05:52;1.40;;;1.30;;
8435;SDS011;4255;48.730;9.156;2023-01-05T00:08:17;1.47;;;1.47;;
8435;SDS011;4255;48.730;9.156;2023-01-05T00:10:43;1.67;;;1.40;;
8435;SDS011;4255;48.730;9.156;2023-01-05T00:13:27;1.30;;;1.20;;
8435;SDS011;4255;48.730;9.156;2023-01-05T00:16:14;2.00;;;1.25;;
8435;SDS011;4255;48.730;9.156;2023-01-05T00:18:58;1.27;;;1.17;;
8435;SDS011;4255;48.730;9.156;2023-01-05T00:21:42;1.20;;;1.10;;
8435;SDS011;4255;48.730;9.156;2023-01-05T00:24:27;2.00;;;1.30;;
8435;SDS011;4255;48.730;9.156;2023-01-05T00:26:53;1.33;;;1.23;;
8435;SDS011;4255;48.730;9.156;2023-01-05T00:29:19;1.23;;;1.20;;
8435;SDS011;4255;48.730;9.156;2023-01-05T00:31:44;1.40;;;1.30;;
8435;SDS011;4255;48.730;9.156;2023-01-05T00:34:10;1.00;;;1.00;;
8435;SDS011;4255;48.730;9.156;2023-01-05T00:36:35;1.43;;;1.40;;
8435;SDS011;4255;48.730;9.156;2023-01-05T00:39:01;1.03;;;1.03;;
8435;SDS011;4255;48.730;9.156;2023-01-05T00:41:27;1.40;;;1.30;;
8435;SDS011;4255;48.730;9.156;2023-01-05T00:43:52;2.50;;;2.27;;
8435;SDS011;4255;48.730;9.156;2023-01-05T00:46:18;0.90;;;0.90;;
8435;SDS011;4255;48.730;9.156;2023-01-05T00:48:43;1.10;;;1.10;;
8435;SDS011;4255;48.730;9.156;2023-01-05T00:51:09;1.30;;;1.20;;
8435;SDS011;4255;48.730;9.156;2023-01-05T00:53:34;1.20;;;1.20;;
8435;SDS011;4255;48.730;9.156;2023-01-05T00:56:00;1.00;;;1.00;;
8435;SDS011;4255;48.730;9.156;2023-01-05T00:58:25;1.40;;;1.17;;
8435;SDS011;4255;48.730;9.156;2023-01-05T01:00:51;1.00;;;1.00;;
8435;SDS011;4255;48.730;9.156;2023-01-05T01:03:17;0.90;;;0.90;;
8435;SDS011;4255;48.730;9.156;2023-01-05T01:05:42;0.90;;;0.90;;
8435;SDS011;4255;48.730;9.156;2023-01-05T01:08:08;1.00;;;1.00;;
8435;SDS011;4255;48.730;9.156;2023-01-05T01:10:33;1.47;;;1.10;;
8435;SDS011;4255;48.730;9.156;2023-01-05T01:12:59;1.00;;;1.00;;
8435;SDS011;4255;48.730;9.156;2023-01-05T01:15:24;1.00;;;1.00;;
8435;SDS011;4255;48.730;9.156;2023-01-05T01:17:50;1.20;;;1.10;;
8435;SDS011;4255;48.730;9.156;2023-01-05T01:20:16;1.10;;;1.10;;
8435;SDS011;4255;48.730;9.156;2023-01-05T01:22:42;1.20;;;1.20;;
8435;SDS011;4255;48.730;9.156;2023-01-05T01:25:08;1.07;;;1.00;;
8435;SDS011;4255;48.730;9.156;2023-01-05T01:27:34;1.20;;;1.10;;
8435;SDS011;4255;48.730;9.156;2023-01-05T01:29:59;1.17;;;1.17;;
8435;SDS011;4255;48.730;9.156;2023-01-05T01:32:25;1.10;;;1.10;;
8435;SDS011;4255;48.730;9.156;2023-01-05T01:34:50;1.00;;;0.90;;
8435;SDS011;4255;48.730;9.156;2023-01-05T01:37:16;1.00;;;1.00;;
8435;SDS011;4255;48.730;9.156;2023-01-05T01:39:41;0.90;;;0.90;;
8435;SDS011;4255;48.730;9.156;2023-01-05T01:42:11;0.90;;;0.90;;
8435;SDS011;4255;48.730;9.156;2023-01-05T01:47:50;1.00;;;1.00;;
8435;SDS011;4255;48.730;9.156;2023-01-05T01:51:14;0.90;;;0.90;;
8435;SDS011;4255;48.730;9.156;2023-01-05T01:53:11;1.00;;;1.00;;
8435;SDS011;4255;48.730;9.156;2023-01-05T01:55:46;1.60;;;1.50;;
8435;SDS011;4255;48.730;9.156;2023-01-05T01:58:14;1.10;;;1.00;;
8435;SDS011;4255;48.730;9.156;2023-01-05T02:00:42;1.05;;;1.05;;
8435;SDS011;4255;48.730;9.156;2023-01-05T02:03:08;1.15;;;1.05;;
8435;SDS011;4255;48.730;9.156;2023-01-05T02:05:34;1.25;;;1.15;;
8435;SDS011;4255;48.730;9.156;2023-01-05T02:08:02;1.02;;;1.02;;
8435;SDS011;4255;48.730;9.156;2023-01-05T02:10:33;0.80;;;0.80;;
8435;SDS011;4255;48.730;9.156;2023-01-05T02:13:22;1.20;;;1.20;;
8435;SDS011;4255;48.730;9.156;2023-01-05T02:21:23;1.17;;;1.17;;
8435;SDS011;4255;48.730;9.156;2023-01-05T02:27:18;1.45;;;1.00;;
8435;SDS011;4255;48.730;9.156;2023-01-05T02:33:26;1.02;;;1.02;;
8435;SDS011;4255;48.730;9.156;2023-01-05T02:36:07;1.13;;;1.13;;
8435;SDS011;4255;48.730;9.156;2023-01-05T02:38:54;1.00;;;1.00;;
8435;SDS011;4255;48.730;9.156;2023-01-05T02:41:34;0.90;;;0.90;;
8435;SDS011;4255;48.730;9.156;2023-01-05T02:44:01;1.00;;;1.00;;
8435;SDS011;4255;48.730;9.156;2023-01-05T02:46:27;0.97;;;0.97;;
8435;SDS011;4255;48.730;9.156;2023-01-05T02:48:54;1.27;;;1.10;;
8435;SDS011;4255;48.730;9.156;2023-01-05T02:51:23;1.20;;;1.10;;
8435;SDS011;4255;48.730;9.156;2023-01-05T02:53:55;0.90;;;0.90;;
8435;SDS011;4255;48.730;9.156;2023-01-05T02:56:51;1.10;;;1.00;;
8435;SDS011;4255;48.730;9.156;2023-01-05T02:59:32;1.00;;;1.00;;
8435;SDS011;4255;48.730;9.156;2023-01-05T03:02:04;1.00;;;1.00;;
8435;SDS011;4255;48.730;9.156;2023-01-05T03:04:38;1.05;;;1.05;;
8435;SDS011;4255;48.730;9.156;2023-01-05T03:07:13;1.42;;;1.00;;
8435;SDS011;4255;48.730;9.156;2023-01-05T03:09:46;2.10;;;1.10;;
8435;SDS011;4255;48.730;9.156;2023-01-05T03:12:18;1.00;;;1.00;;
8435;SDS011;4255;48.730;9.156;2023-01-05T03:15:13;0.85;;;0.85;;
8435;SDS011;4255;48.730;9.156;2023-01-05T03:17:57;0.90;;;0.90;;
8435;SDS011;4255;48.730;9.156;2023-01-05T03:20:31;1.13;;;1.02;;
8435;SDS011;4255;48.730;9.156;2023-01-05T03:22:59;1.00;;;1.00;;
8435;SDS011;4255;48.730;9.156;2023-01-05T03:25:45;0.90;;;0.90;;
8435;SDS011;4255;48.730;9.156;2023-01-05T03:28:34;1.35;;;1.25;;
8435;SDS011;4255;48.730;9.156;2023-01-05T03:31:37;1.20;;;1.10;;
8435;SDS011;4255;48.730;9.156;2023-01-05T03:38:28;1.10;;;1.10;;
8435;SDS011;4255;48.730;9.156;2023-01-05T03:40:34;1.10;;;1.10;;
8435;SDS011;4255;48.730;9.156;2023-01-05T03:43:02;1.20;;;1.20;;
8435;SDS011;4255;48.730;9.156;2023-01-05T03:45:37;1.15;;;1.10;;
8435;SDS011;4255;48.730;9.156;2023-01-05T03:48:05;2.10;;;1.88;;
8435;SDS011;4255;48.730;9.156;2023-01-05T03:50:32;1.20;;;1.10;;
8435;SDS011;4255;48.730;9.156;2023-01-05T03:52:58;1.00;;;1.00;;
8435;SDS011;4255;48.730;9.156;2023-01-05T03:55:24;1.20;;;1.10;;
8435;SDS011;4255;48.730;9.156;2023-01-05T03:57:49;0.90;;;0.90;;
8435;SDS011;4255;48.730;9.156;2023-01-05T04:00:15;0.97;;;0.97;;
8435;SDS011;4255;48.730;9.156;2023-01-05T04:02:41;1.02;;;1.02;;
8435;SDS011;4255;48.730;9.156;2023-01-05T04:05:08;0.90;;;0.90;;
8435;SDS011;4255;48.730;9.156;2023-01-05T04:07:33;1.00;;;1.00;;
8435;SDS011;4255;48.730;9.156;2023-01-05T04:09:59;1.00;;;1.00;;
8435;SDS011;4255;48.730;9.156;2023-01-05T04:12:25;1.00;;;1.00;;
8435;SDS011;4255;48.730;9.156;2023-01-05T04:14:51;1.00;;;1.00;;
8435;SDS011;4255;48.730;9.156;2023-01-05T04:17:17;0.80;;;0.80;;
8435;SDS011;4255;48.730;9.156;2023-01-05T04:19:43;0.90;;;0.90;;
8435;SDS011;4255;48.730;9.156;2023-01-05T04:22:09;1.00;;;1.00;;
8435;SDS011;4255;48.730;9.156;2023-01-05T04:24:35;0.87;;;0.87;;
8435;SDS011;4255;48.730;9.156;2023-01-05T04:27:01;0.98;;;0.98;;
8435;SDS011;4255;48.730;9.156;2023-01-05T04:29:26;0.90;;;0.90;;
8435;SDS011;4255;48.730;9.156;2023-01-05T04:31:52;1.00;;;1.00;;
8435;SDS011;4255;48.730;9.156;2023-01-05T04:34:17;0.80;;;0.80;;
8435;SDS011;4255;48.730;9.156;2023-01-05T04:36:45;0.90;;;0.90;;
8435;SDS011;4255;48.730;9.156;2023-01-05T04:39:12;0.95;;;0.95;;
8435;SDS011;4255;48.730;9.156;2023-01-05T04:41:38;0.90;;;0.90;;
8435;SDS011;4255;48.730;9.156;2023-01-05T04:44:05;1.20;;;1.10;;
8435;SDS011;4255;48.730;9.156;2023-01-05T04:46:30;1.30;;;0.90;;
8435;SDS011;4255;48.730;9.156;2023-01-05T04:48:56;2.50;;;1.00;;
8435;SDS011;4255;48.730;9.156;2023-01-05T04:51:22;0.90;;;0.90;;
8435;SDS011;4255;48.730;9.156;2023-01-05T04:53:48;0.90;;;0.90;;
8435;SDS011;4255;48.730;9.156;2023-01-05T04:56:14;0.83;;;0.83;;
8435;SDS011;4255;48.730;9.156;2023-01-05T04:58:40;0.90;;;0.90;;
8435;SDS011;4255;48.730;9.156;2023-01-05T05:01:05;1.00;;;1.00;;
8435;SDS011;4255;48.730;9.156;2023-01-05T05:03:31;0.87;;;0.87;;
8435;SDS011;4255;48.730;9.156;2023-01-05T05:05:57;0.90;;;0.90;;
8435;SDS011;4255;48.730;9.156;2023-01-05T05:08:22;1.37;;;1.00;;
8435;SDS011;4255;48.730;9.156;2023-01-05T05:10:48;0.87;;;0.87;;
8435;SDS011;4255;48.730;9.156;2023-01-05T05:13:14;0.98;;;0.98;;
8435;SDS011;4255;48.730;9.156;2023-01-05T05:15:42;1.67;;;0.80;;
8435;SDS011;4255;48.730;9.156;2023-01-05T05:18:08;0.98;;;0.98;;
8435;SDS011;4255;48.730;9.156;2023-01-05T05:20:34;1.00;;;0.90;;
8435;SDS011;4255;48.730;9.156;2023-01-05T05:23:00;0.90;;;0.90;;
8435;SDS011;4255;48.730;9.156;2023-01-05T05:25:25;0.93;;;0.93;;
8435;SDS011;4255;48.730;9.156;2023-01-05T05:27:51;0.93;;;0.93;;
8435;SDS011;4255;48.730;9.156;2023-01-05T05:30:17;1.00;;;1.00;;
8435;SDS011;4255;48.730;9.156;2023-01-05T05:32:42;0.90;;;0.90;;
8435;SDS011;4255;48.730;9.156;2023-01-05T05:35:08;1.00;;;1.00;;
8435;SDS011;4255;48.730;9.156;2023-01-05T05:37:34;1.10;;;1.00;;
8435;SDS011;4255;48.730;9.156;2023-01-05T05:39:59;1.30;;;0.93;;
8435;SDS011;4255;48.730;9.156;2023-01-05T05:42:25;1.93;;;1.03;;
8435;SDS011;4255;48.730;9.156;2023-01-05T05:44:51;0.90;;;0.90;;
8435;SDS011;4255;48.730;9.156;2023-01-05T05:47:17;1.00;;;1.00;;
8435;SDS011;4255;48.730;9.156;2023-01-05T05:49:42;1.00;;;0.90;;
8435;SDS011;4255;48.730;9.156;2023-01-05T05:52:08;1.03;;;1.03;;
8435;SDS011;4255;48.730;9.156;2023-01-05T05:54:33;0.83;;;0.83;;
8435;SDS011;4255;48.730;9.156;2023-01-05T05:56:59;2.90;;;0.90;;
8435;SDS011;4255;48.730;9.156;2023-01-05T05:59:25;0.90;;;0.90;;
8435;SDS011;4255;48.730;9.156;2023-01-05T06:01:50;0.90;;;0.90;;
8435;SDS011;4255;48.730;9.156;2023-01-05T06:04:16;1.00;;;1.00;;
8435;SDS011;4255;48.730;9.156;2023-01-05T06:06:42;1.00;;;1.00;;
8435;SDS011;4255;48.730;9.156;2023-01-05T06:09:08;1.10;;;1.10;;
8435;SDS011;4255;48.730;9.156;2023-01-05T06:11:33;1.17;;;1.17;;
8435;SDS011;4255;48.730;9.156;2023-01-05T06:13:59;1.73;;;1.10;;
8435;SDS011;4255;48.730;9.156;2023-01-05T06:16:26;0.90;;;0.90;;
8435;SDS011;4255;48.730;9.156;2023-01-05T06:18:52;1.70;;;1.10;;
8435;SDS011;4255;48.730;9.156;2023-01-05T06:21:18;1.20;;;1.10;;
8435;SDS011;4255;48.730;9.156;2023-01-05T06:23:45;2.08;;;1.30;;
8435;SDS011;4255;48.730;9.156;2023-01-05T06:26:11;1.20;;;1.20;;
8435;SDS011;4255;48.730;9.156;2023-01-05T06:28:36;1.50;;;1.40;;
8435;SDS011;4255;48.730;9.156;2023-01-05T06:31:02;1.13;;;1.13;;
8435;SDS011;4255;48.730;9.156;2023-01-05T06:33:27;1.40;;;1.40;;
8435;SDS011;4255;48.730;9.156;2023-01-05T06:35:53;1.30;;;1.30;;
8435;SDS011;4255;48.730;9.156;2023-01-05T06:38:19;3.25;;;1.40;;
8435;SDS011;4255;48.730;9.156;2023-01-05T06:40:45;1.20;;;1.10;;
8435;SDS011;4255;48.730;9.156;2023-01-05T06:43:11;1.00;;;1.00;;
8435;SDS011;4255;48.730;9.156;2023-01-05T06:45:37;1.00;;;1.00;;
8435;SDS011;4255;48.730;9.156;2023-01-05T06:48:03;1.10;;;1.10;;
8435;SDS011;4255;48.730;9.156;2023-01-05T06:50:29;1.17;;;1.17;;
8435;SDS011;4255;48.730;9.156;2023-01-05T06:52:56;1.75;;;1.40;;
8435;SDS011;4255;48.730;9.156;2023-01-05T06:55:22;1.25;;;1.08;;
8435;SDS011;4255;48.730;9.156;2023-01-05T06:57:47;1.10;;;1.10;;
8435;SDS011;4255;48.730;9.156;2023-01-05T07:00:13;1.37;;;1.27;;
8435;SDS011;4255;48.730;9.156;2023-01-05T07:02:39;1.77;;;1.13;;
8435;SDS011;4255;48.730;9.156;2023-01-05T07:05:05;1.87;;;1.50;;
8435;SDS011;4255;48.730;9.156;2023-01-05T07:07:31;1.15;;;1.13;;
8435;SDS011;4255;48.730;9.156;2023-01-05T07:09:57;1.40;;;1.30;;
8435;SDS011;4255;48.730;9.156;2023-01-05T07:12:22;2.20;;;1.50;;
8435;SDS011;4255;48.730;9.156;2023-01-05T07:14:48;2.17;;;1.63;;
8435;SDS011;4255;48.730;9.156;2023-01-05T07:17:14;4.33;;;3.20;;
8435;SDS011;4255;48.730;9.156;2023-01-05T07:19:40;1.50;;;1.40;;
8435;SDS011;4255;48.730;9.156;2023-01-05T07:22:05;2.00;;;1.30;;
8435;SDS011;4255;48.730;9.156;2023-01-05T07:24:31;3.37;;;1.90;;
8435;SDS011;4255;48.730;9.156;2023-01-05T07:26:57;1.90;;;1.80;;
8435;SDS011;4255;48.730;9.156;2023-01-05T07:29:23;4.25;;;1.52;;
8435;SDS011;4255;48.730;9.156;2023-01-05T07:31:49;3.53;;;3.20;;
8435;SDS011;4255;48.730;9.156;2023-01-05T07:34:18;29.13;;;15.05;;
8435;SDS011;4255;48.730;9.156;2023-01-05T07:36:44;19.02;;;11.25;;
8435;SDS011;4255;48.730;9.156;2023-01-05T07:39:10;4.90;;;3.20;;
8435;SDS011;4255;48.730;9.156;2023-01-05T07:41:35;4.77;;;4.00;;
8435;SDS011;4255;48.730;9.156;2023-01-05T07:44:01;5.50;;;2.50;;
8435;SDS011;4255;48.730;9.156;2023-01-05T07:46:27;2.83;;;2.63;;
8435;SDS011;4255;48.730;9.156;2023-01-05T07:48:52;2.37;;;2.10;;
8435;SDS011;4255;48.730;9.156;2023-01-05T07:51:18;1.50;;;1.40;;
8435;SDS011;4255;48.730;9.156;2023-01-05T07:53:45;2.43;;;1.70;;
8435;SDS011;4255;48.730;9.156;2023-01-05T07:56:11;2.55;;;2.35;;
8435;SDS011;4255;48.730;9.156;2023-01-05T07:58:36;1.80;;;1.70;;
8435;SDS011;4255;48.730;9.156;2023-01-05T08:01:03;6.20;;;1.93;;
8435;SDS011;4255;48.730;9.156;2023-01-05T08:03:30;2.33;;;1.83;;
8435;SDS011;4255;48.730;9.156;2023-01-05T08:05:56;5.77;;;2.87;;
8435;SDS011;4255;48.730;9.156;2023-01-05T08:08:21;5.43;;;2.63;;
8435;SDS011;4255;48.730;9.156;2023-01-05T08:10:47;2.53;;;2.00;;
8435;SDS011;4255;48.730;9.156;2023-01-05T08:13:13;1.97;;;1.87;;
8435;SDS011;4255;48.730;9.156;2023-01-05T08:15:57;1.92;;;1.60;;
8435;SDS011;4255;48.730;9.156;2023-01-05T08:18:24;3.47;;;1.90;;
8435;SDS011;4255;48.730;9.156;2023-01-05T08:20:59;2.47;;;1.98;;
8435;SDS011;4255;48.730;9.156;2023-01-05T08:23:30;4.25;;;2.20;;
8435;SDS011;4255;48.730;9.156;2023-01-05T08:25:56;1.77;;;1.67;;
8435;SDS011;4255;48.730;9.156;2023-01-05T08:28:30;6.47;;;2.40;;
8435;SDS011;4255;48.730;9.156;2023-01-05T08:31:00;5.33;;;2.73;;
8435;SDS011;4255;48.730;9.156;2023-01-05T08:33:27;2.05;;;1.83;;
8435;SDS011;4255;48.730;9.156;2023-01-05T08:35:53;2.23;;;2.03;;
8435;SDS011;4255;48.730;9.156;2023-01-05T08:38:20;2.57;;;2.20;;
8435;SDS011;4255;48.730;9.156;2023-01-05T08:40:46;2.20;;;1.58;;
8435;SDS011;4255;48.730;9.156;2023-01-05T08:43:12;4.30;;;1.73;;
8435;SDS011;4255;48.730;9.156;2023-01-05T08:45:37;3.03;;;2.53;;
8435;SDS011;4255;48.730;9.156;2023-01-05T08:48:03;7.20;;;2.10;;
8435;SDS011;4255;48.730;9.156;2023-01-05T08:50:29;2.80;;;1.90;;
8435;SDS011;4255;48.730;9.156;2023-01-05T08:52:55;6.05;;;2.38;;
8435;SDS011;4255;48.730;9.156;2023-01-05T08:55:21;2.53;;;1.90;;
8435;SDS011;4255;48.730;9.156;2023-01-05T08:57:47;10.33;;;1.90;;
8435;SDS011;4255;48.730;9.156;2023-01-05T09:00:13;4.67;;;2.20;;
8435;SDS011;4255;48.730;9.156;2023-01-05T09:02:41;8.32;;;2.58;;
8435;SDS011;4255;48.730;9.156;2023-01-05T09:05:08;4.88;;;2.30;;
8435;SDS011;4255;48.730;9.156;2023-01-05T09:07:33;2.90;;;2.17;;
8435;SDS011;4255;48.730;9.156;2023-01-05T09:09:59;8.13;;;2.20;;
8435;SDS011;4255;48.730;9.156;2023-01-05T09:12:25;9.50;;;3.10;;
8435;SDS011;4255;48.730;9.156;2023-01-05T09:14:51;14.20;;;2.43;;
8435;SDS011;4255;48.730;9.156;2023-01-05T09:17:18;10.95;;;2.83;;
8435;SDS011;4255;48.730;9.156;2023-01-05T09:19:43;6.00;;;2.07;;
8435;SDS011;4255;48.730;9.156;2023-01-05T09:22:09;5.00;;;2.30;;
8435;SDS011;4255;48.730;9.156;2023-01-05T09:24:35;4.43;;;2.20;;
8435;SDS011;4255;48.730;9.156;2023-01-05T09:27:01;3.80;;;1.70;;
8435;SDS011;4255;48.730;9.156;2023-01-05T09:29:27;5.63;;;2.33;;
8435;SDS011;4255;48.730;9.156;2023-01-05T09:31:53;5.37;;;1.67;;
8435;SDS011;4255;48.730;9.156;2023-01-05T09:34:19;8.53;;;2.40;;
8435;SDS011;4255;48.730;9.156;2023-01-05T09:36:45;7.23;;;2.40;;
8435;SDS011;4255;48.730;9.156;2023-01-05T09:39:10;8.40;;;2.40;;
8435;SDS011;4255;48.730;9.156;2023-01-05T09:41:53;7.97;;;2.40;;
8435;SDS011;4255;48.730;9.156;2023-01-05T09:44:37;13.02;;;2.60;;
8435;SDS011;4255;48.730;9.156;2023-01-05T09:47:28;2.55;;;2.35;;
8435;SDS011;4255;48.730;9.156;2023-01-05T09:49:56;5.65;;;2.35;;
8435;SDS011;4255;48.730;9.156;2023-01-05T09:52:23;3.70;;;2.45;;
8435;SDS011;4255;48.730;9.156;2023-01-05T09:54:50;9.85;;;3.08;;
8435;SDS011;4255;48.730;9.156;2023-01-05T09:57:26;6.70;;;3.20;;
8435;SDS011;4255;48.730;9.156;2023-01-05T09:59:54;4.10;;;1.80;;
8435;SDS011;4255;48.730;9.156;2023-01-05T10:04:51;10.65;;;3.00;;
8435;SDS011;4255;48.730;9.156;2023-01-05T10:07:22;5.25;;;1.90;;
8435;SDS011;4255;48.730;9.156;2023-01-05T10:09:56;3.90;;;2.13;;
8435;SDS011;4255;48.730;9.156;2023-01-05T10:12:28;9.07;;;2.40;;
8435;SDS011;4255;48.730;9.156;2023-01-05T10:15:20;8.77;;;2.13;;
8435;SDS011;4255;48.730;9.156;2023-01-05T10:17:46;12.97;;;2.23;;
8435;SDS011;4255;48.730;9.156;2023-01-05T10:26:05;9.30;;;2.73;;
8435;SDS011;4255;48.730;9.156;2023-01-05T10:29:22;9.68;;;2.22;;
8435;SDS011;4255;48.730;9.156;2023-01-05T10:31:46;5.88;;;2.42;;
8435;SDS011;4255;48.730;9.156;2023-01-05T10:34:21;5.95;;;2.22;;
8435;SDS011;4255;48.730;9.156;2023-01-05T10:45:24;5.65;;;2.58;;
8435;SDS011;4255;48.730;9.156;2023-01-05T10:47:53;7.90;;;2.15;;
8435;SDS011;4255;48.730;9.156;2023-01-05T10:52:51;6.47;;;2.25;;
8435;SDS011;4255;48.730;9.156;2023-01-05T10:55:18;9.00;;;2.87;;
8435;SDS011;4255;48.730;9.156;2023-01-05T10:57:44;6.10;;;2.50;;
8435;SDS011;4255;48.730;9.156;2023-01-05T11:02:41;7.78;;;3.25;;
8435;SDS011;4255;48.730;9.156;2023-01-05T11:05:29;7.37;;;2.50;;
8435;SDS011;4255;48.730;9.156;2023-01-05T11:08:13;4.95;;;2.40;;
8435;SDS011;4255;48.730;9.156;2023-01-05T11:11:00;8.95;;;2.28;;
8435;SDS011;4255;48.730;9.156;2023-01-05T11:18:45;7.55;;;3.42;;
8435;SDS011;4255;48.730;9.156;2023-01-05T11:34:05;4.40;;;3.10;;
8435;SDS011;4255;48.730;9.156;2023-01-05T11:36:35;13.07;;;5.93;;
8435;SDS011;4255;48.730;9.156;2023-01-05T11:39:02;6.63;;;3.83;;
8435;SDS011;4255;48.730;9.156;2023-01-05T11:41:28;9.50;;;3.10;;
8435;SDS011;4255;48.730;9.156;2023-01-05T11:43:53;6.80;;;2.53;;
8435;SDS011;4255;48.730;9.156;2023-01-05T11:46:24;9.20;;;2.40;;
8435;SDS011;4255;48.730;9.156;2023-01-05T11:48:53;4.77;;;2.50;;
8435;SDS011;4255;48.730;9.156;2023-01-05T11:51:34;5.75;;;3.20;;
8435;SDS011;4255;48.730;9.156;2023-01-05T11:54:02;9.82;;;2.70;;
8435;SDS011;4255;48.730;9.156;2023-01-05T11:56:29;7.03;;;3.07;;
8435;SDS011;4255;48.730;9.156;2023-01-05T11:58:55;8.63;;;2.80;;
8435;SDS011;4255;48.730;9.156;2023-01-05T12:19:15;7.85;;;2.95;;
8435;SDS011;4255;48.730;9.156;2023-01-05T12:27:22;6.80;;;3.60;;
8435;SDS011;4255;48.730;9.156;2023-01-05T12:30:17;20.13;;;3.42;;
8435;SDS011;4255;48.730;9.156;2023-01-05T12:49:16;5.85;;;3.00;;
8435;SDS011;4255;48.730;9.156;2023-01-05T12:51:49;5.43;;;2.10;;
8435;SDS011;4255;48.730;9.156;2023-01-05T12:54:35;7.00;;;3.05;;
8435;SDS011;4255;48.730;9.156;2023-01-05T12:57:13;8.30;;;2.40;;
8435;SDS011;4255;48.730;9.156;2023-01-05T13:04:47;6.88;;;2.58;;
8435;SDS011;4255;48.730;9.156;2023-01-05T13:07:26;7.57;;;2.70;;
8435;SDS011;4255;48.730;9.156;2023-01-05T13:09:57;6.35;;;2.50;;
8435;SDS011;4255;48.730;9.156;2023-01-05T13:12:25;9.45;;;2.80;;
8435;SDS011;4255;48.730;9.156;2023-01-05T13:15:35;9.07;;;2.70;;
8435;SDS011;4255;48.730;9.156;2023-01-05T13:17:47;9.52;;;3.70;;
8435;SDS011;4255;48.730;9.156;2023-01-05T13:22:48;8.80;;;2.78;;
8435;SDS011;4255;48.730;9.156;2023-01-05T13:25:18;16.23;;;3.13;;
8435;SDS011;4255;48.730;9.156;2023-01-05T13:27:47;8.43;;;2.83;;
8435;SDS011;4255;48.730;9.156;2023-01-05T13:30:26;9.80;;;2.80;;
8435;SDS011;4255;48.730;9.156;2023-01-05T13:36:04;11.18;;;3.35;;
8435;SDS011;4255;48.730;9.156;2023-01-05T13:44:30;14.25;;;3.85;;
8435;SDS011;4255;48.730;9.156;2023-01-05T13:47:04;14.20;;;3.50;;
8435;SDS011;4255;48.730;9.156;2023-01-05T13:52:50;15.55;;;3.60;;
8435;SDS011;4255;48.730;9.156;2023-01-05T13:55:25;5.00;;;3.00;;
8435;SDS011;4255;48.730;9.156;2023-01-05T13:57:52;9.02;;;3.17;;
8435;SDS011;4255;48.730;9.156;2023-01-05T14:03:00;7.40;;;2.85;;
8435;SDS011;4255;48.730;9.156;2023-01-05T14:08:23;17.80;;;4.43;;
8435;SDS011;4255;48.730;9.156;2023-01-05T14:13:39;7.15;;;2.58;;
8435;SDS011;4255;48.730;9.156;2023-01-05T14:19:12;6.07;;;2.78;;
8435;SDS011;4255;48.730;9.156;2023-01-05T14:32:14;4.28;;;2.38;;
8435;SDS011;4255;48.730;9.156;2023-01-05T14:34:56;5.78;;;3.40;;
8435;SDS011;4255;48.730;9.156;2023-01-05T14:37:53;11.27;;;2.90;;
8435;SDS011;4255;48.730;9.156;2023-01-05T14:42:59;6.38;;;2.50;;
8435;SDS011;4255;48.730;9.156;2023-01-05T14:45:30;11.05;;;3.60;;
8435;SDS011;4255;48.730;9.156;2023-01-05T14:48:01;12.45;;;4.25;;
8435;SDS011;4255;48.730;9.156;2023-01-05T15:06:45;21.70;;;7.40;;
8435;SDS011;4255;48.730;9.156;2023-01-05T15:09:20;21.85;;;6.32;;
8435;SDS011;4255;48.730;9.156;2023-01-05T15:14:59;13.77;;;3.85;;
8435;SDS011;4255;48.730;9.156;2023-01-05T15:27:56;18.08;;;4.78;;
8435;SDS011;4255;48.730;9.156;2023-01-05T15:33:56;18.90;;;8.18;;
8435;SDS011;4255;48.730;9.156;2023-01-05T15:36:30;16.42;;;3.55;;
8435;SDS011;4255;48.730;9.156;2023-01-05T15:38:59;9.75;;;4.00;;
8435;SDS011;4255;48.730;9.156;2023-01-05T15:41:25;12.47;;;4.83;;
8435;SDS011;4255;48.730;9.156;2023-01-05T15:43:52;12.85;;;3.80;;
8435;SDS011;4255;48.730;9.156;2023-01-05T15:46:19;12.73;;;4.10;;
8435;SDS011;4255;48.730;9.156;2023-01-05T15:48:50;14.80;;;4.97;;
8435;SDS011;4255;48.730;9.156;2023-01-05T15:51:28;7.43;;;3.67;;
8435;SDS011;4255;48.730;9.156;2023-01-05T15:54:00;9.88;;;4.97;;
8435;SDS011;4255;48.730;9.156;2023-01-05T15:56:33;7.97;;;3.58;;
8435;SDS011;4255;48.730;9.156;2023-01-05T15:59:01;11.80;;;7.65;;
8435;SDS011;4255;48.730;9.156;2023-01-05T16:01:28;22.80;;;7.75;;
8435;SDS011;4255;48.730;9.156;2023-01-05T16:04:06;12.20;;;7.60;;
8435;SDS011;4255;48.730;9.156;2023-01-05T16:06:37;12.93;;;8.48;;
8435;SDS011;4255;48.730;9.156;2023-01-05T16:09:09;17.60;;;7.95;;
8435;SDS011;4255;48.730;9.156;2023-01-05T16:11:44;14.00;;;9.18;;
8435;SDS011;4255;48.730;9.156;2023-01-05T16:14:26;14.02;;;5.32;;
8435;SDS011;4255;48.730;9.156;2023-01-05T16:17:00;15.15;;;6.55;;
8435;SDS011;4255;48.730;9.156;2023-01-05T16:19:38;5.57;;;3.28;;
8435;SDS011;4255;48.730;9.156;2023-01-05T16:22:20;8.95;;;4.22;;
8435;SDS011;4255;48.730;9.156;2023-01-05T16:27:24;9.45;;;3.50;;
8435;SDS011;4255;48.730;9.156;2023-01-05T16:29:50;10.90;;;3.97;;
8435;SDS011;4255;48.730;9.156;2023-01-05T16:32:24;13.67;;;3.90;;
8435;SDS011;4255;48.730;9.156;2023-01-05T16:34:50;6.80;;;4.00;;
8435;SDS011;4255;48.730;9.156;2023-01-05T16:37:16;7.00;;;3.25;;
8435;SDS011;4255;48.730;9.156;2023-01-05T16:39:43;17.17;;;10.02;;
8435;SDS011;4255;48.730;9.156;2023-01-05T16:42:16;9.27;;;3.47;;
8435;SDS011;4255;48.730;9.156;2023-01-05T16:44:59;8.20;;;6.30;;
8435;SDS011;4255;48.730;9.156;2023-01-05T16:47:35;9.18;;;4.20;;
8435;SDS011;4255;48.730;9.156;2023-01-05T16:50:40;14.77;;;4.53;;
8435;SDS011;4255;48.730;9.156;2023-01-05T16:53:05;13.80;;;4.50;;
8435;SDS011;4255;48.730;9.156;2023-01-05T16:55:38;7.88;;;4.93;;
8435;SDS011;4255;48.730;9.156;2023-01-05T16:58:05;17.73;;;5.27;;
8435;SDS011;4255;48.730;9.156;2023-01-05T17:03:34;15.27;;;8.48;;
8435;SDS011;4255;48.730;9.156;2023-01-05T17:06:00;9.60;;;4.57;;
8435;SDS011;4255;48.730;9.156;2023-01-05T17:08:27;8.77;;;4.38;;
8435;SDS011;4255;48.730;9.156;2023-01-05T17:10:56;7.03;;;4.40;;
8435;SDS011;4255;48.730;9.156;2023-01-05T17:13:24;14.88;;;5.35;;
8435;SDS011;4255;48.730;9.156;2023-01-05T17:15:53;22.75;;;6.13;;
8435;SDS011;4255;48.730;9.156;2023-01-05T17:18:24;17.83;;;10.18;;
8435;SDS011;4255;48.730;9.156;2023-01-05T17:20:51;14.93;;;6.00;;
8435;SDS011;4255;48.730;9.156;2023-01-05T17:23:23;11.93;;;7.15;;
8435;SDS011;4255;48.730;9.156;2023-01-05T17:25:49;11.10;;;5.75;;
8435;SDS011;4255;48.730;9.156;2023-01-05T17:28:18;9.38;;;4.20;;
8435;SDS011;4255;48.730;9.156;2023-01-05T17:30:46;9.30;;;5.53;;
8435;SDS011;4255;48.730;9.156;2023-01-05T17:33:12;6.75;;;4.20;;
8435;SDS011;4255;48.730;9.156;2023-01-05T17:35:38;13.07;;;4.93;;
8435;SDS011;4255;48.730;9.156;2023-01-05T17:38:04;13.80;;;9.07;;
8435;SDS011;4255;48.730;9.156;2023-01-05T17:40:29;15.47;;;7.87;;
8435;SDS011;4255;48.730;9.156;2023-01-05T17:42:55;19.73;;;6.90;;
8435;SDS011;4255;48.730;9.156;2023-01-05T17:45:21;12.60;;;6.40;;
8435;SDS011;4255;48.730;9.156;2023-01-05T17:47:49;11.27;;;6.20;;
8435;SDS011;4255;48.730;9.156;2023-01-05T17:50:16;15.73;;;5.20;;
8435;SDS011;4255;48.730;9.156;2023-01-05T17:52:46;8.30;;;4.57;;
8435;SDS011;4255;48.730;9.156;2023-01-05T17:55:12;7.47;;;3.70;;
8435;SDS011;4255;48.730;9.156;2023-01-05T17:57:38;6.47;;;4.43;;
8435;SDS011;4255;48.730;9.156;2023-01-05T18:00:06;13.32;;;5.25;;
8435;SDS011;4255;48.730;9.156;2023-01-05T18:02:35;7.93;;;5.00;;
8435;SDS011;4255;48.730;9.156;2023-01-05T18:05:00;16.58;;;6.32;;
8435;SDS011;4255;48.730;9.156;2023-01-05T18:07:27;10.53;;;6.03;;
8435;SDS011;4255;48.730;9.156;2023-01-05T18:09:54;6.30;;;5.70;;
8435;SDS011;4255;48.730;9.156;2023-01-05T18:12:20;9.77;;;5.05;;
8435;SDS011;4255;48.730;9.156;2023-01-05T18:14:46;9.70;;;3.97;;
8435;SDS011;4255;48.730;9.156;2023-01-05T18:17:12;13.57;;;6.70;;
8435;SDS011;4255;48.730;9.156;2023-01-05T18:19:39;7.30;;;4.40;;
8435;SDS011;4255;48.730;9.156;2023-01-05T18:22:08;7.13;;;3.70;;
8435;SDS011;4255;48.730;9.156;2023-01-05T18:24:34;10.05;;;3.58;;
8435;SDS011;4255;48.730;9.156;2023-01-05T18:27:00;7.67;;;3.27;;
8435;SDS011;4255;48.730;9.156;2023-01-05T18:29:30;8.55;;;4.35;;